Time;durP1;ratioP1;P1;durP2;ratioP2;P2;SDS_P1;SDS_P2;PMS_P1;PMS_P2;Temp;Humidity;BMP_temperature;BMP_pressure;BME280_temperature;BME280_humidity;BME280_pressure;Samples;Min_cycle;Max_cycle;Signal;HPM_P1;HPM_P2
2021/04/05 00:00:16;;;;;;;1999.90;999.90;;;5.80;99.90;;;;;;5051478;28;20402;-69
2021/04/05 00:02:42;;;;;;;1999.90;999.90;;;5.80;99.90;;;;;;5051315;28;20487;-69
2021/04/05 00:05:11;;;;;;;1999.90;999.90;;;5.90;99.90;;;;;;5051093;28;20493;-70
2021/04/05 00:07:37;;;;;;;1999.90;999.90;;;5.80;99.90;;;;;;5051325;28;20409;-70
2021/04/05 00:10:11;;;;;;;1999.90;999.90;;;5.80;99.90;;;;;;5054012;28;20413;-70
2021/04/05 00:12:36;;;;;;;1999.90;999.90;;;5.80;99.90;;;;;;5055938;28;20555;-69
2021/04/05 00:15:05;;;;;;;1999.90;999.90;;;5.90;99.90;;;;;;5059855;28;20442;-71
2021/04/05 00:17:30;;;;;;;1999.90;999.90;;;5.80;99.90;;;;;;5061123;28;20206;-70
2021/04/05 00:19:56;;;;;;;1999.90;999.90;;;5.90;99.90;;;;;;5054943;28;20891;-70
2021/04/05 00:22:22;;;;;;;1999.90;999.90;;;5.90;99.90;;;;;;5054856;28;20187;-70
2021/04/05 00:24:47;;;;;;;1999.90;999.90;;;5.90;99.90;;;;;;5055163;28;20186;-70
2021/04/05 00:27:13;;;;;;;1999.90;999.90;;;5.90;99.90;;;;;;5056657;28;20514;-69
2021/04/05 00:29:38;;;;;;;1999.90;999.90;;;5.90;99.90;;;;;;5055023;28;20191;-69
2021/04/05 00:32:05;;;;;;;1999.90;999.90;;;6.00;99.90;;;;;;5054574;28;20209;-69
2021/04/05 00:34:31;;;;;;;1999.90;999.90;;;6.00;99.90;;;;;;5054697;28;20203;-70
2021/04/05 00:36:56;;;;;;;1999.90;999.90;;;6.10;99.90;;;;;;5054277;28;21021;-69
2021/04/05 00:39:22;;;;;;;1999.90;999.90;;;6.10;99.90;;;;;;5054545;28;20237;-70
2021/04/05 00:41:48;;;;;;;1999.90;999.90;;;6.10;99.90;;;;;;5054479;28;20219;-69
2021/04/05 00:44:13;;;;;;;1999.90;999.90;;;6.10;99.90;;;;;;5056952;28;20531;-69
2021/04/05 00:46:39;;;;;;;1999.90;999.90;;;6.10;99.90;;;;;;5057020;28;20402;-69
2021/04/05 00:49:05;;;;;;;1999.90;999.90;;;6.10;99.90;;;;;;5056938;28;20184;-69
2021/04/05 00:51:30;;;;;;;1999.90;999.90;;;6.10;99.90;;;;;;5054336;28;20751;-69
2021/04/05 00:53:57;;;;;;;1999.90;999.90;;;6.10;99.90;;;;;;5056558;28;20512;-71
2021/04/05 00:56:25;;;;;;;1999.90;999.90;;;6.10;99.90;;;;;;5062968;28;20191;-70
2021/04/05 00:58:51;;;;;;;1999.90;999.90;;;6.10;99.90;;;;;;5059387;28;20478;-69
2021/04/05 01:01:20;;;;;;;1999.90;999.90;;;6.00;99.90;;;;;;5061885;28;20484;-71
2021/04/05 01:03:47;;;;;;;1999.90;999.90;;;6.00;99.90;;;;;;5062971;28;20395;-70
2021/04/05 01:06:20;;;;;;;1999.90;999.90;;;6.10;99.90;;;;;;5063570;28;20406;-69
2021/04/05 01:08:45;;;;;;;1999.90;999.90;;;6.00;99.90;;;;;;5063727;28;20406;-69
2021/04/05 01:11:14;;;;;;;1999.90;999.90;;;6.10;99.90;;;;;;5063053;28;20430;-70
2021/04/05 01:13:40;;;;;;;1999.90;999.90;;;6.10;99.90;;;;;;5056203;28;20258;-70
2021/04/05 01:16:07;;;;;;;1999.90;999.90;;;6.10;99.90;;;;;;5062620;28;20481;-70
2021/04/05 01:18:33;;;;;;;1999.90;999.90;;;6.10;99.90;;;;;;5064160;28;20415;-70
2021/04/05 01:21:00;;;;;;;1999.90;999.90;;;6.20;99.90;;;;;;5063598;28;20426;-71
2021/04/05 01:23:25;;;;;;;1999.90;999.90;;;6.20;99.90;;;;;;5060055;28;21107;-69
2021/04/05 01:25:51;;;;;;;1999.90;999.90;;;6.20;99.90;;;;;;5054158;28;20411;-70
2021/04/05 01:28:17;;;;;;;1999.90;999.90;;;6.20;99.90;;;;;;5053840;28;20210;-70
2021/04/05 01:30:46;;;;;;;1999.90;999.90;;;6.30;99.90;;;;;;5053574;28;20926;-70
2021/04/05 01:33:30;;;;;;;1999.90;999.90;;;6.20;99.90;;;;;;5053627;28;20475;-69
2021/04/05 01:36:03;;;;;;;1999.90;999.90;;;6.20;99.90;;;;;;5053286;28;20441;-69
2021/04/05 01:38:34;;;;;;;1999.90;999.90;;;6.30;99.90;;;;;;5054496;28;20448;-69
2021/04/05 01:41:06;;;;;;;1999.90;999.90;;;6.30;99.90;;;;;;5053993;28;20418;-70
2021/04/05 01:43:32;;;;;;;1999.90;999.90;;;6.30;99.90;;;;;;5055138;28;20449;-69
2021/04/05 01:45:59;;;;;;;1999.90;999.90;;;6.30;99.90;;;;;;5055196;28;20506;-70
2021/04/05 01:48:27;;;;;;;1999.90;999.90;;;6.30;99.90;;;;;;5054916;28;20402;-70
2021/04/05 01:51:07;;;;;;;1999.90;999.90;;;6.30;99.90;;;;;;5053255;28;20438;-70
2021/04/05 01:53:33;;;;;;;1999.90;999.90;;;6.30;99.90;;;;;;5053973;28;20409;-70
2021/04/05 01:56:07;;;;;;;1999.90;999.90;;;6.40;99.90;;;;;;5053817;28;20472;-70
2021/04/05 01:58:37;;;;;;;1999.90;999.90;;;6.40;99.90;;;;;;5053034;28;20399;-70
2021/04/05 02:01:06;;;;;;;1999.90;999.90;;;6.40;99.90;;;;;;5058014;28;20429;-70
2021/04/05 02:03:32;;;;;;;1999.90;999.90;;;6.40;99.90;;;;;;5056938;28;20402;-70
2021/04/05 02:06:04;;;;;;;1999.90;999.90;;;6.50;99.90;;;;;;5052687;28;20496;-70
2021/04/05 02:08:31;;;;;;;1999.90;999.90;;;6.50;99.90;;;;;;5052869;28;20418;-69
2021/04/05 02:11:01;;;;;;;1999.90;999.90;;;6.40;99.90;;;;;;5061279;28;20433;-70
2021/04/05 02:13:27;;;;;;;1999.90;999.90;;;6.50;99.90;;;;;;5061965;28;20497;-70
2021/04/05 02:15:54;;;;;;;1999.90;999.90;;;6.50;99.90;;;;;;5062538;28;20445;-70
2021/04/05 02:18:25;;;;;;;1999.90;999.90;;;6.50;99.90;;;;;;5055439;28;20469;-70
2021/04/05 02:20:50;;;;;;;1999.90;999.90;;;6.60;99.90;;;;;;5054431;28;20514;-69
2021/04/05 02:23:18;;;;;;;1999.90;999.90;;;6.50;99.90;;;;;;5054313;28;20930;-69
2021/04/05 02:28:31;;;;;;;1999.90;999.90;;;6.60;99.90;;;;;;5054256;28;20421;-69
2021/04/05 02:30:58;;;;;;;1999.90;999.90;;;6.50;99.90;;;;;;5054184;28;20449;-69
2021/04/05 02:33:23;;;;;;;1999.90;999.90;;;6.50;99.90;;;;;;5053382;28;21149;-70
2021/04/05 02:35:49;;;;;;;1999.90;999.90;;;6.50;99.90;;;;;;5053727;28;20549;-69
2021/04/05 02:38:16;;;;;;;1999.90;999.90;;;6.50;99.90;;;;;;5054554;28;20164;-69
2021/04/05 02:40:42;;;;;;;1999.90;999.90;;;6.50;99.90;;;;;;5055519;28;20429;-70
2021/04/05 02:43:10;;;;;;;1999.90;999.90;;;6.50;99.90;;;;;;5059718;28;20406;-69
2021/04/05 02:45:37;;;;;;;1999.90;999.90;;;6.50;99.90;;;;;;5059367;28;20449;-70
2021/04/05 02:48:03;;;;;;;1999.90;999.90;;;6.50;99.90;;;;;;5057974;28;20783;-71
2021/04/05 02:50:31;;;;;;;1999.90;999.90;;;6.50;99.90;;;;;;5057220;28;20907;-70
2021/04/05 02:53:03;;;;;;;1999.90;999.90;;;6.60;99.90;;;;;;5059944;28;20402;-70
2021/04/05 02:55:29;;;;;;;1999.90;999.90;;;6.60;99.90;;;;;;5059127;28;20499;-71
2021/04/05 02:57:55;;;;;;;1999.90;999.90;;;6.60;99.90;;;;;;5052781;28;20904;-70
2021/04/05 03:00:22;;;;;;;1999.90;999.90;;;6.60;99.90;;;;;;5053375;28;20186;-70
2021/04/05 03:02:50;;;;;;;1999.90;999.90;;;6.60;99.90;;;;;;5061202;28;20927;-70
2021/04/05 03:05:18;;;;;;;1999.90;999.90;;;6.60;99.90;;;;;;5058855;28;20410;-71
2021/04/05 03:07:45;;;;;;;1999.90;999.90;;;6.60;99.90;;;;;;5053508;28;20433;-70
2021/04/05 03:10:12;;;;;;;1999.90;999.90;;;6.60;99.90;;;;;;5053865;28;20463;-69
2021/04/05 03:12:40;;;;;;;1999.90;999.90;;;6.60;99.90;;;;;;5057508;28;20425;-71
2021/04/05 03:15:08;;;;;;;1999.90;999.90;;;6.60;99.90;;;;;;5058166;28;20445;-71
2021/04/05 03:17:36;;;;;;;1999.90;999.90;;;6.60;99.90;;;;;;5057169;28;20517;-70
2021/04/05 03:20:13;;;;;;;1999.90;999.90;;;6.60;99.90;;;;;;5053826;28;20412;-69
2021/04/05 03:22:41;;;;;;;1999.90;999.90;;;6.60;99.90;;;;;;5052494;28;20454;-71
2021/04/05 03:25:14;;;;;;;1999.90;999.90;;;6.60;99.90;;;;;;5056214;28;20977;-71
2021/04/05 03:27:40;;;;;;;1999.90;999.90;;;6.60;99.90;;;;;;5057634;28;20417;-71
2021/04/05 03:30:06;;;;;;;1999.90;999.90;;;6.50;99.90;;;;;;5054846;28;20772;-70
2021/04/05 03:32:36;;;;;;;1999.90;999.90;;;6.50;99.90;;;;;;5051870;28;20214;-70
2021/04/05 03:35:05;;;;;;;1999.90;999.90;;;6.50;99.90;;;;;;5051288;28;20449;-70
2021/04/05 03:37:34;;;;;;;1999.90;999.90;;;6.50;99.90;;;;;;5051627;28;20445;-70
2021/04/05 03:40:00;;;;;;;1999.90;999.90;;;6.50;99.90;;;;;;5053144;28;20403;-69
2021/04/05 03:42:36;;;;;;;1999.90;999.90;;;6.40;99.90;;;;;;5058908;28;20777;-70
2021/04/05 03:45:05;;;;;;;1999.90;999.90;;;6.50;99.90;;;;;;5060382;28;20399;-70
2021/04/05 03:47:58;;;;;;;1999.90;999.90;;;6.40;99.90;;;;;;5061639;28;20865;-71
2021/04/05 03:50:23;;;;;;;1999.90;999.90;;;6.50;99.90;;;;;;5061880;28;20485;-70
2021/04/05 03:52:56;;;;;;;1999.90;999.90;;;6.50;99.90;;;;;;5063598;28;20426;-70
2021/04/05 03:55:26;;;;;;;1999.90;999.90;;;6.50;99.90;;;;;;5062703;28;20210;-71
2021/04/05 03:57:55;;;;;;;1999.90;999.90;;;6.60;99.90;;;;;;5058488;28;20796;-70
2021/04/05 04:00:23;;;;;;;1999.90;999.90;;;6.60;99.90;;;;;;5055266;28;20402;-69
2021/04/05 04:02:52;;;;;;;1999.90;999.90;;;6.60;99.90;;;;;;5060999;28;20401;-71
2021/04/05 04:05:28;;;;;;;1999.90;999.90;;;6.60;99.90;;;;;;5064512;28;20417;-70
2021/04/05 04:08:44;;;;;;;1999.90;999.90;;;6.70;99.90;;;;;;5060160;28;20432;-69
2021/04/05 04:10:50;;;;;;;1999.90;999.90;;;6.70;99.90;;;;;;5047313;28;20448;-70
2021/04/05 04:13:18;;;;;;;1999.90;999.90;;;6.70;99.90;;;;;;5063624;28;20456;-70
2021/04/05 04:15:48;;;;;;;1999.90;999.90;;;6.70;99.90;;;;;;5061500;28;20488;-70
2021/04/05 04:18:17;;;;;;;1999.90;999.90;;;6.70;99.90;;;;;;5057958;28;20783;-70
2021/04/05 04:20:43;;;;;;;1999.90;999.90;;;6.70;99.90;;;;;;5063458;28;20418;-70
2021/04/05 04:23:11;;;;;;;1999.90;999.90;;;6.60;99.90;;;;;;5056212;28;20748;-70
2021/04/05 04:25:36;;;;;;;1999.90;999.90;;;6.70;99.90;;;;;;5060993;28;20411;-69
2021/04/05 04:28:04;;;;;;;1999.90;999.90;;;6.70;99.90;;;;;;5063116;28;20406;-71
2021/04/05 04:30:33;;;;;;;1999.90;999.90;;;6.60;99.90;;;;;;5064119;28;20183;-71
2021/04/05 04:33:05;;;;;;;1999.90;999.90;;;6.60;99.90;;;;;;5062204;28;20418;-70
2021/04/05 04:35:33;;;;;;;1999.90;999.90;;;6.60;99.90;;;;;;5056819;28;20556;-70
2021/04/05 04:38:00;;;;;;;1999.90;999.90;;;6.70;99.90;;;;;;5057705;28;20402;-70
2021/04/05 04:40:28;;;;;;;1999.90;999.90;;;6.70;99.90;;;;;;5057816;28;20410;-70
2021/04/05 04:42:59;;;;;;;1999.90;999.90;;;6.60;99.90;;;;;;5060074;28;20505;-70
2021/04/05 04:45:25;;;;;;;1999.90;999.90;;;6.60;99.90;;;;;;5054202;28;20407;-70
2021/04/05 04:47:52;;;;;;;1999.90;999.90;;;6.50;99.90;;;;;;5054594;28;20410;-69
2021/04/05 04:50:18;;;;;;;1999.90;999.90;;;6.50;99.90;;;;;;5054542;28;20464;-70
2021/04/05 04:52:44;;;;;;;1999.90;999.90;;;6.60;99.90;;;;;;5054862;28;20505;-69
2021/04/05 04:55:10;;;;;;;1999.90;999.90;;;6.60;99.90;;;;;;5056640;28;20525;-70
2021/04/05 04:57:36;;;;;;;1999.90;999.90;;;6.60;99.90;;;;;;5062574;28;20171;-70
2021/04/05 05:00:04;;;;;;;1999.90;999.90;;;6.60;99.90;;;;;;5062024;28;20399;-69
2021/04/05 05:02:31;;;;;;;1999.90;999.90;;;6.60;99.90;;;;;;5062401;28;20218;-71
2021/04/05 05:04:58;;;;;;;1999.90;999.90;;;6.60;99.90;;;;;;5061617;28;20472;-71
2021/04/05 05:07:25;;;;;;;1999.90;999.90;;;6.60;99.90;;;;;;5061656;28;20410;-70
2021/04/05 05:09:51;;;;;;;1999.90;999.90;;;6.50;99.90;;;;;;5054049;28;20825;-70
2021/04/05 05:12:17;;;;;;;1999.90;999.90;;;6.60;99.90;;;;;;5054053;28;20460;-69
2021/04/05 05:14:43;;;;;;;1999.90;999.90;;;6.60;99.90;;;;;;5057346;28;20743;-70
2021/04/05 05:17:10;;;;;;;1999.90;999.90;;;6.50;99.90;;;;;;5061451;28;20450;-70
2021/04/05 05:19:37;;;;;;;1999.90;999.90;;;6.50;99.90;;;;;;5061601;28;20768;-70
2021/04/05 05:22:04;;;;;;;1999.90;999.90;;;6.50;99.90;;;;;;5061902;28;20914;-70
2021/04/05 05:24:31;;;;;;;1999.90;999.90;;;6.50;99.90;;;;;;5056023;28;20406;-69
2021/04/05 05:26:57;;;;;;;1999.90;999.90;;;6.40;99.90;;;;;;5055928;28;20895;-69
2021/04/05 05:29:23;;;;;;;1999.90;999.90;;;6.40;99.90;;;;;;5056101;28;20440;-70
2021/04/05 05:31:49;;;;;;;1999.90;999.90;;;6.40;99.90;;;;;;5055810;28;20799;-70
2021/04/05 05:34:21;;;;;;;1999.90;999.90;;;6.40;99.90;;;;;;5055852;28;20412;-69
2021/04/05 05:36:48;;;;;;;1999.90;999.90;;;6.40;99.90;;;;;;5055294;28;20545;-69
2021/04/05 05:39:15;;;;;;;1999.90;999.90;;;6.40;99.90;;;;;;5054601;28;20402;-70
2021/04/05 05:41:56;;;;;;;1999.90;999.90;;;6.40;99.90;;;;;;5053362;28;20527;-70
2021/04/05 05:44:32;;;;;;;1999.90;999.90;;;6.40;99.90;;;;;;5053495;28;20398;-70
2021/04/05 05:47:11;;;;;;;1999.90;999.90;;;6.40;99.90;;;;;;5053077;28;20464;-70
2021/04/05 05:50:00;;;;;;;1999.90;999.90;;;6.40;99.90;;;;;;5055277;28;20410;-69
2021/04/05 05:52:53;;;;;;;1999.90;999.90;;;6.40;99.90;;;;;;5054968;28;20434;-69
2021/04/05 05:55:43;;;;;;;1999.90;999.90;;;6.40;99.90;;;;;;5055178;28;20460;-70
2021/04/05 05:58:15;;;;;;;1999.90;999.90;;;6.40;99.90;;;;;;5055303;28;20541;-70
2021/04/05 06:00:56;;;;;;;1999.90;999.90;;;6.30;99.90;;;;;;5054789;28;20394;-69
2021/04/05 06:03:41;;;;;;;1999.90;999.90;;;6.30;99.90;;;;;;5055091;28;20431;-69
2021/04/05 06:06:48;;;;;;;1999.90;999.90;;;6.30;99.90;;;;;;5052823;28;20560;-70
2021/04/05 06:09:48;;;;;;;1999.90;999.90;;;6.30;99.90;;;;;;5052927;28;20406;-69
2021/04/05 06:12:24;;;;;;;1999.90;999.90;;;6.30;99.90;;;;;;5052745;28;20426;-70
2021/04/05 06:15:22;;;;;;;1999.90;999.90;;;6.30;99.90;;;;;;5052490;28;20398;-69
2021/04/05 06:18:14;;;;;;;1999.90;999.90;;;6.30;99.90;;;;;;5052874;28;20485;-70
2021/04/05 06:20:51;;;;;;;1999.90;999.90;;;6.30;99.90;;;;;;5054358;28;20394;-69
2021/04/05 06:23:46;;;;;;;1999.90;999.90;;;6.30;99.90;;;;;;5054404;28;20397;-69
2021/04/05 06:26:50;;;;;;;1999.90;999.90;;;6.30;99.90;;;;;;5051716;28;20418;-69
2021/04/05 06:30:00;;;;;;;1999.90;999.90;;;6.30;99.90;;;;;;5053694;28;20446;-70
2021/04/05 06:32:48;;;;;;;1999.90;999.90;;;6.30;99.90;;;;;;5048170;28;20499;-70
2021/04/05 06:35:29;;;;;;;1999.90;999.90;;;6.30;99.90;;;;;;5052201;28;21165;-70
2021/04/05 06:38:03;;;;;;;1999.90;999.90;;;6.40;99.90;;;;;;5052431;28;20390;-70
2021/04/05 06:40:32;;;;;;;1999.90;999.90;;;6.30;99.90;;;;;;5052324;28;20432;-70
2021/04/05 06:43:16;;;;;;;1999.90;999.90;;;6.40;99.90;;;;;;5052358;28;20398;-69
2021/04/05 06:45:52;;;;;;;1999.90;999.90;;;6.40;99.90;;;;;;5051927;28;20402;-69
2021/04/05 06:48:52;;;;;;;1999.90;999.90;;;6.30;99.90;;;;;;5056969;28;20394;-71
2021/04/05 06:51:27;;;;;;;1999.90;999.90;;;6.30;99.90;;;;;;5059323;28;20418;-71
2021/04/05 06:54:22;;;;;;;1999.90;999.90;;;6.20;99.90;;;;;;5058589;28;20406;-71
2021/04/05 06:56:56;;;;;;;1999.90;999.90;;;6.20;99.90;;;;;;5059433;28;20445;-70
2021/04/05 06:59:57;;;;;;;1999.90;999.90;;;6.20;99.90;;;;;;5056762;28;20409;-69
2021/04/05 07:02:35;;;;;;;1999.90;999.90;;;6.30;99.90;;;;;;5052026;28;20421;-69
2021/04/05 07:05:38;;;;;;;1999.90;999.90;;;6.30;99.90;;;;;;5051658;28;20398;-70
2021/04/05 07:08:12;;;;;;;1999.90;999.90;;;6.20;99.90;;;;;;5051958;28;20453;-69
2021/04/05 07:10:51;;;;;;;1999.90;999.90;;;6.30;99.90;;;;;;5058176;28;20398;-70
2021/04/05 07:13:36;;;;;;;1999.90;999.90;;;6.30;99.90;;;;;;5058050;28;20413;-70
2021/04/05 07:16:35;;;;;;;1999.90;999.90;;;6.40;99.90;;;;;;5057439;28;21015;-71
2021/04/05 07:19:35;;;;;;;1999.90;999.90;;;6.40;99.90;;;;;;5057131;28;20402;-69
2021/04/05 07:22:16;;;;;;;1999.90;999.90;;;6.50;99.90;;;;;;5057019;28;20432;-69
2021/04/05 07:24:54;;;;;;;1999.90;999.90;;;6.50;99.90;;;;;;5053909;28;20410;-69
2021/04/05 07:27:44;;;;;;;1999.90;999.90;;;6.60;99.90;;;;;;5053812;28;20406;-70
2021/04/05 07:30:21;;;;;;;1999.90;999.90;;;6.60;99.90;;;;;;5015377;28;20406;-70
2021/04/05 07:32:50;;;;;;;1999.90;999.90;;;6.60;99.90;;;;;;5057588;28;20454;-69
2021/04/05 07:35:30;;;;;;;1999.90;999.90;;;6.70;99.90;;;;;;5053699;28;21007;-70
2021/04/05 07:38:24;;;;;;;1999.90;999.90;;;6.70;99.90;;;;;;5052992;28;20436;-69
2021/04/05 07:41:02;;;;;;;1999.90;999.90;;;6.80;99.90;;;;;;5056051;28;20765;-70
2021/04/05 07:43:39;;;;;;;1999.90;999.90;;;6.90;99.90;;;;;;5057110;28;20391;-69
2021/04/05 07:46:10;;;;;;;1999.90;999.90;;;7.00;99.90;;;;;;5055825;28;20494;-71
2021/04/05 07:48:41;;;;;;;1999.90;999.90;;;7.10;99.90;;;;;;5055379;28;20402;-70
2021/04/05 07:51:22;;;;;;;1999.90;999.90;;;7.10;99.90;;;;;;5051459;28;20439;-70
2021/04/05 07:53:58;;;;;;;1999.90;999.90;;;7.20;99.90;;;;;;5051748;28;20944;-70
2021/04/05 07:56:51;;;;;;;1999.90;999.90;;;7.20;99.90;;;;;;5051180;28;20599;-70
2021/04/05 07:59:25;;;;;;;1999.90;999.90;;;7.30;99.90;;;;;;5051447;28;20398;-70
2021/04/05 08:02:15;;;;;;;1999.90;999.90;;;7.30;99.90;;;;;;5054186;28;20499;-70
2021/04/05 08:05:08;;;;;;;1999.90;999.90;;;7.30;99.90;;;;;;5056499;28;20434;-70
2021/04/05 08:08:05;;;;;;;1999.90;999.90;;;7.40;99.90;;;;;;5058111;28;20395;-71
2021/04/05 08:10:39;;;;;;;1999.90;999.90;;;7.40;99.90;;;;;;5055150;28;20398;-69
2021/04/05 08:13:30;;;;;;;1999.90;999.90;;;7.40;99.90;;;;;;5053146;28;20400;-70
2021/04/05 08:16:11;;;;;;;1999.90;999.90;;;7.50;99.90;;;;;;5052767;28;20452;-69
2021/04/05 08:19:01;;;;;;;1999.90;999.90;;;7.50;99.90;;;;;;5053216;28;20395;-69
2021/04/05 08:21:35;;;;;;;1999.90;999.90;;;7.50;99.90;;;;;;5053043;28;20414;-70
2021/04/05 08:24:58;;;;;;;1999.90;999.90;;;7.50;99.90;;;;;;5053888;28;20397;-70
2021/04/05 08:28:06;;;;;;;1999.90;999.90;;;7.50;99.90;;;;;;4973359;28;20428;-69
2021/04/05 08:30:49;;;;;;;1999.90;999.90;;;7.40;99.90;;;;;;4875975;29;20468;-68
2021/04/05 08:33:39;;;;;;;1999.90;999.90;;;6.30;99.90;;;;;;5046354;28;20401;-68
2021/04/05 08:36:35;;;;;;;1999.90;999.90;;;4.70;99.90;;;;;;5054403;28;20848;-68
2021/04/05 08:39:18;;;;;;;1999.90;999.90;;;4.00;99.90;;;;;;5054714;28;20264;-68
2021/04/05 08:41:49;;;;;;;1999.90;999.90;;;3.80;99.90;;;;;;5054622;28;20191;-68
2021/04/05 08:44:24;;;;;;;1999.90;999.90;;;3.80;99.90;;;;;;5054597;28;20174;-68
2021/04/05 08:46:53;;;;;;;1999.90;999.90;;;3.90;99.90;;;;;;5054282;28;20401;-69
2021/04/05 08:49:21;;;;;;;1999.90;999.90;;;3.90;99.90;;;;;;5054464;28;20194;-68
2021/04/05 08:51:57;;;;;;;1999.90;999.90;;;4.00;99.90;;;;;;5054337;28;20187;-68
2021/04/05 08:54:29;;;;;;;1999.90;999.90;;;4.10;99.90;;;;;;5054492;28;20409;-69
2021/04/05 08:57:04;;;;;;;1999.90;999.90;;;4.20;99.90;;;;;;5054056;28;20258;-68
2021/04/05 08:59:45;;;;;;;1999.90;999.90;;;4.20;99.90;;;;;;5054239;28;20406;-67
2021/04/05 09:02:36;;;;;;;1999.90;999.90;;;4.30;99.90;;;;;;5054266;28;20440;-68
2021/04/05 09:05:10;;;;;;;1999.90;999.90;;;4.30;99.90;;;;;;5054018;28;20390;-68
2021/04/05 09:08:02;;;;;;;1999.90;999.90;;;4.40;99.90;;;;;;5054409;28;20915;-68
2021/04/05 09:10:51;;;;;;;1999.90;999.90;;;4.40;99.90;;;;;;5053923;28;20405;-68
2021/04/05 09:13:22;;;;;;;1999.90;999.90;;;4.50;99.90;;;;;;5053888;28;20412;-67
2021/04/05 09:16:29;;;;;;;1999.90;999.90;;;4.50;99.90;;;;;;5053715;28;20446;-68
2021/04/05 09:19:29;;;;;;;1999.90;999.90;;;4.60;99.90;;;;;;5054088;28;20747;-68
2021/04/05 09:22:14;;;;;;;1999.90;999.90;;;4.60;99.90;;;;;;5036135;28;20437;-68
2021/04/05 09:24:48;;;;;;;1999.90;999.90;;;4.70;99.90;;;;;;5053797;28;20744;-68
2021/04/05 09:27:48;;;;;;;1999.90;999.90;;;4.70;99.90;;;;;;5053924;28;20843;-68
2021/04/05 09:30:27;;;;;;;1999.90;999.90;;;4.80;99.90;;;;;;5053841;28;20490;-68
2021/04/05 09:33:23;;;;;;;1999.90;999.90;;;4.70;99.90;;;;;;5078895;22;20498;-71
2021/04/05 09:35:58;;;;;;;1999.90;999.90;;;4.60;99.90;;;;;;5033415;28;20525;-71
2021/04/05 09:38:53;;;;;;;1999.90;999.90;;;4.50;99.90;;;;;;5033752;28;20398;-71
2021/04/05 09:41:56;;;;;;;1999.90;999.90;;;4.40;99.90;;;;;;5032964;28;20941;-71
2021/04/05 09:44:48;;;;;;;1999.90;999.90;;;4.30;99.90;;;;;;5033681;28;20399;-72
2021/04/05 09:47:32;;;;;;;1999.90;999.90;;;4.20;99.90;;;;;;5031329;28;20429;-71
2021/04/05 09:50:16;;;;;;;1999.90;999.90;;;4.10;99.90;;;;;;5033469;28;20403;-72
2021/04/05 09:52:50;;;;;;;1999.90;999.90;;;4.10;99.90;;;;;;5033404;28;20494;-72
2021/04/05 09:55:24;;;;;;;1999.90;999.90;;;4.10;99.90;;;;;;5032959;28;20446;-71
2021/04/05 09:57:55;;;;;;;1999.90;999.90;;;4.00;99.90;;;;;;5031218;28;20434;-70
2021/04/05 10:00:22;;;;;;;1999.90;999.90;;;3.90;99.90;;;;;;5032798;28;20165;-70
2021/04/05 10:02:52;;;;;;;1999.90;999.90;;;3.80;99.90;;;;;;5034222;28;20188;-70
2021/04/05 10:05:20;;;;;;;1999.90;999.90;;;3.70;99.90;;;;;;5031052;28;20195;-69
2021/04/05 10:07:49;;;;;;;1999.90;999.90;;;3.60;99.90;;;;;;5029507;28;20199;-69
2021/04/05 10:10:16;;;;;;;1999.90;999.90;;;3.60;99.90;;;;;;5030952;28;20211;-68
2021/04/05 10:12:45;;;;;;;1999.90;999.90;;;3.60;99.90;;;;;;5030968;28;20195;-71
2021/04/05 10:15:14;;;;;;;1999.90;999.90;;;3.60;99.90;;;;;;5031093;28;20439;-71
2021/04/05 10:17:45;;;;;;;1999.90;999.90;;;3.50;99.90;;;;;;5031350;28;20176;-70
2021/04/05 10:20:12;;;;;;;1999.90;999.90;;;3.50;99.90;;;;;;5030892;28;20417;-71
2021/04/05 10:22:41;;;;;;;1999.90;999.90;;;3.50;99.90;;;;;;5031332;28;20661;-72
2021/04/05 10:25:09;;;;;;;1999.90;999.90;;;3.50;99.90;;;;;;5030679;28;20171;-71
2021/04/05 10:27:35;;;;;;;1999.90;999.90;;;3.50;99.90;;;;;;5030477;28;20449;-70
2021/04/05 10:30:02;;;;;;;1999.90;999.90;;;3.40;99.90;;;;;;5030865;28;20509;-72
2021/04/05 10:32:28;;;;;;;1999.90;999.90;;;3.40;99.90;;;;;;5030563;28;20206;-71
2021/04/05 10:34:59;;;;;;;1999.90;999.90;;;3.50;99.90;;;;;;5030862;28;20650;-73
2021/04/05 10:37:39;;;;;;;1999.90;999.90;;;3.50;99.90;;;;;;5031238;28;20457;-73
2021/04/05 10:40:15;;;;;;;1999.90;999.90;;;3.70;99.90;;;;;;5031265;28;20621;-74
2021/04/05 10:42:48;;;;;;;1999.90;999.90;;;3.80;99.90;;;;;;5030478;28;20188;-71
2021/04/05 10:45:24;;;;;;;1999.90;999.90;;;3.80;99.90;;;;;;5029808;28;20168;-71
2021/04/05 10:48:10;;;;;;;1999.90;999.90;;;3.80;99.90;;;;;;5030333;28;20430;-72
2021/04/05 10:50:52;;;;;;;1999.90;999.90;;;3.80;99.90;;;;;;5031182;28;20443;-72
2021/04/05 10:53:19;;;;;;;1999.90;999.90;;;3.90;99.90;;;;;;5030206;28;20399;-73
2021/04/05 10:55:51;;;;;;;1999.90;999.90;;;3.90;99.90;;;;;;5030326;28;20468;-72
2021/04/05 10:58:22;;;;;;;1999.90;999.90;;;3.90;99.90;;;;;;5029741;28;20399;-71
2021/04/05 11:00:54;;;;;;;1999.90;999.90;;;4.10;99.90;;;;;;5030845;28;20756;-71
2021/04/05 11:03:30;;;;;;;1999.90;999.90;;;4.10;99.90;;;;;;5030805;28;20425;-71
2021/04/05 11:05:59;;;;;;;1999.90;999.90;;;4.10;99.90;;;;;;5029351;28;20494;-71
2021/04/05 11:08:30;;;;;;;1999.90;999.90;;;4.20;99.90;;;;;;5030041;28;20457;-71
2021/04/05 11:11:07;;;;;;;1999.90;999.90;;;4.30;99.90;;;;;;5029959;28;20407;-71
2021/04/05 11:13:36;;;;;;;1999.90;999.90;;;4.30;99.90;;;;;;5029889;28;20657;-72
2021/04/05 11:16:11;;;;;;;1999.90;999.90;;;4.30;99.90;;;;;;5029585;28;20450;-72
2021/04/05 11:18:45;;;;;;;1999.90;999.90;;;4.40;99.90;;;;;;5029834;28;20402;-71
2021/04/05 11:21:13;;;;;;;1999.90;999.90;;;4.30;99.90;;;;;;5029589;28;20472;-72
2021/04/05 11:23:40;;;;;;;1999.90;999.90;;;4.30;99.90;;;;;;5029949;28;20418;-71
2021/04/05 11:26:07;;;;;;;1999.90;999.90;;;4.30;99.90;;;;;;5029423;28;20460;-71
2021/04/05 11:28:34;;;;;;;1999.90;999.90;;;4.30;99.90;;;;;;5029474;28;20589;-72
2021/04/05 11:31:33;;;;;;;1999.90;999.90;;;4.10;99.90;;;;;;5029768;28;20979;-72
2021/04/05 11:34:00;;;;;;;1999.90;999.90;;;4.10;99.90;;;;;;5029910;28;20533;-72
2021/04/05 11:36:38;;;;;;;1999.90;999.90;;;3.60;99.90;;;;;;5028806;28;20454;-71
2021/04/05 11:39:09;;;;;;;1999.90;999.90;;;2.30;99.90;;;;;;5029874;28;20203;-71
2021/04/05 11:41:36;;;;;;;1999.90;999.90;;;1.80;99.90;;;;;;5029536;28;20203;-71
2021/04/05 11:44:03;;;;;;;1999.90;999.90;;;1.70;99.90;;;;;;5030128;28;20545;-72
2021/04/05 11:46:34;;;;;;;1999.90;999.90;;;1.70;99.90;;;;;;5029589;28;20715;-71
2021/04/05 11:49:11;;;;;;;1999.90;999.90;;;2.00;99.90;;;;;;5029817;28;20589;-72
2021/04/05 11:52:01;;;;;;;1999.90;999.90;;;2.40;99.90;;;;;;5031673;28;20569;-69
2021/04/05 11:54:45;;;;;;;1999.90;999.90;;;2.80;99.90;;;;;;5035838;28;20172;-70
2021/04/05 11:57:12;;;;;;;1999.90;999.90;;;3.20;99.90;;;;;;5034646;28;20238;-70
2021/04/05 11:59:47;;;;;;;1999.90;999.90;;;3.60;99.90;;;;;;5033865;28;20164;-70
2021/04/05 12:02:27;;;;;;;1999.90;999.90;;;4.30;99.90;;;;;;5034652;28;20570;-71
2021/04/05 12:05:07;;;;;;;1999.90;999.90;;;4.90;99.90;;;;;;5033718;28;20414;-72
2021/04/05 12:07:35;;;;;;;1999.90;999.90;;;5.40;99.90;;;;;;5036217;28;20497;-70
2021/04/05 12:10:05;;;;;;;1999.90;999.90;;;5.60;99.90;;;;;;5035752;28;20402;-71
2021/04/05 12:13:04;;;;;;;1999.90;999.90;;;5.60;99.90;;;;;;5034539;28;20439;-72
2021/04/05 12:15:31;;;;;;;1999.90;999.90;;;5.30;99.90;;;;;;5031099;28;20530;-73
2021/04/05 12:17:58;;;;;;;1999.90;999.90;;;5.30;99.90;;;;;;5033889;28;20434;-72
2021/04/05 12:20:27;;;;;;;1999.90;999.90;;;5.20;99.90;;;;;;5033316;28;20434;-71
2021/04/05 12:23:00;;;;;;;1999.90;999.90;;;5.30;99.90;;;;;;5032663;28;20427;-72
2021/04/05 12:25:32;;;;;;;1999.90;999.90;;;5.40;99.90;;;;;;5032704;28;20494;-72
2021/04/05 12:28:03;;;;;;;1999.90;999.90;;;5.40;99.90;;;;;;5032612;28;20780;-73
2021/04/05 12:30:31;;;;;;;1999.90;999.90;;;5.40;99.90;;;;;;5032970;28;20410;-74
2021/04/05 12:32:58;;;;;;;1999.90;999.90;;;5.40;99.90;;;;;;5032999;28;20458;-73
2021/04/05 12:35:26;;;;;;;1999.90;999.90;;;5.40;99.90;;;;;;5032077;28;20462;-73
2021/04/05 12:38:00;;;;;;;1999.90;999.90;;;5.40;99.90;;;;;;5032224;28;20968;-73
2021/04/05 12:40:28;;;;;;;1999.90;999.90;;;5.40;99.90;;;;;;5033030;28;20474;-72
2021/04/05 12:43:01;;;;;;;1999.90;999.90;;;5.40;99.90;;;;;;5031116;28;20799;-74
2021/04/05 12:45:29;;;;;;;1999.90;999.90;;;5.40;99.90;;;;;;5032349;28;20935;-75